Time;durP1;ratioP1;P1;durP2;ratioP2;P2;SDS_P1;SDS_P2;PMS_P1;PMS_P2;Temp;Humidity;BMP_temperature;BMP_pressure;BME280_temperature;BME280_humidity;BME280_pressure;Samples;Min_cycle;Max_cycle;Signal;HPM_P1;HPM_P2
2022/12/30 00:00:19;;;;;;;35.42;16.63;;;;;;;;;;1040986;28;20445;-74
2022/12/30 00:00:50;;;;;;;28.23;15.90;;;;;;;;;;1037365;28;20026;-74
2022/12/30 00:01:21;;;;;;;32.42;15.30;;;;;;;;;;1038008;28;20548;-74
2022/12/30 00:01:52;;;;;;;29.38;15.77;;;;;;;;;;1040024;28;20473;-74
2022/12/30 00:02:22;;;;;;;33.95;15.85;;;;;;;;;;1043836;28;20039;-74
2022/12/30 00:02:53;;;;;;;24.75;11.73;;;;;;;;;;1043461;28;20031;-75
2022/12/30 00:03:23;;;;;;;29.73;14.32;;;;;;;;;;1043604;28;20645;-75
2022/12/30 00:03:54;;;;;;;31.02;16.83;;;;;;;;;;1043739;28;20043;-75
2022/12/30 00:04:25;;;;;;;37.25;14.80;;;;;;;;;;1043752;28;20402;-75
2022/12/30 00:04:55;;;;;;;26.80;15.57;;;;;;;;;;1043339;28;20075;-75
2022/12/30 00:05:26;;;;;;;24.15;13.85;;;;;;;;;;1041940;28;20021;-74
2022/12/30 00:05:56;;;;;;;31.05;16.52;;;;;;;;;;1041905;28;20040;-74
2022/12/30 00:06:27;;;;;;;25.20;13.63;;;;;;;;;;1041372;28;20021;-74
2022/12/30 00:07:00;;;;;;;28.17;14.48;;;;;;;;;;1039599;28;20029;-75
2022/12/30 00:07:34;;;;;;;32.63;15.18;;;;;;;;;;1039731;28;20617;-74
2022/12/30 00:08:45;;;;;;;31.98;16.48;;;;;;;;;;1035424;28;20127;-74
2022/12/30 00:08:56;;;;;;;32.15;15.90;;;;;;;;;;1041481;28;20044;-74
2022/12/30 00:09:27;;;;;;;42.72;19.80;;;;;;;;;;1038927;28;20477;-74
2022/12/30 00:09:57;;;;;;;30.42;16.45;;;;;;;;;;1042456;28;20029;-74
2022/12/30 00:10:28;;;;;;;32.63;15.82;;;;;;;;;;1039387;28;20100;-74
2022/12/30 00:10:58;;;;;;;28.02;16.67;;;;;;;;;;1039822;28;20053;-75
2022/12/30 00:11:31;;;;;;;27.95;15.73;;;;;;;;;;1043815;28;20067;-74
2022/12/30 00:33:06;;;;;;;37.45;17.65;;;;;;;;;;1043672;28;21029;-74
2022/12/30 00:33:09;;;;;;;34.58;16.35;;;;;;;;;;1044125;28;20012;-74
2022/12/30 00:33:53;;;;;;;38.35;16.90;;;;;;;;;;1043484;28;20070;-74
2022/12/30 00:34:29;;;;;;;36.67;17.05;;;;;;;;;;1043611;28;20025;-74
2022/12/30 00:35:00;;;;;;;35.30;15.88;;;;;;;;;;1041586;28;20219;-75
2022/12/30 00:35:31;;;;;;;31.70;17.45;;;;;;;;;;1043787;28;20123;-75
2022/12/30 00:36:01;;;;;;;30.30;15.50;;;;;;;;;;1041661;28;20566;-74
2022/12/30 00:36:32;;;;;;;35.67;16.42;;;;;;;;;;1041627;28;20447;-74
2022/12/30 00:37:03;;;;;;;32.35;15.07;;;;;;;;;;1039285;28;20063;-74
2022/12/30 00:37:34;;;;;;;26.10;14.30;;;;;;;;;;1039861;28;20159;-74
2022/12/30 00:38:05;;;;;;;37.80;17.67;;;;;;;;;;1043685;28;20439;-74
2022/12/30 00:38:35;;;;;;;36.25;16.60;;;;;;;;;;1043694;28;20112;-74
2022/12/30 00:39:06;;;;;;;35.42;15.57;;;;;;;;;;1043996;28;20376;-74
2022/12/30 00:39:36;;;;;;;32.00;14.30;;;;;;;;;;1043474;28;20051;-75
2022/12/30 00:40:07;;;;;;;34.15;16.27;;;;;;;;;;1042561;28;20108;-75
2022/12/30 00:43:07;;;;;;;29.55;15.55;;;;;;;;;;1043709;28;20124;-75
2022/12/30 00:43:09;;;;;;;33.60;14.40;;;;;;;;;;1043977;28;20042;-74
2022/12/30 00:43:39;;;;;;;27.75;14.40;;;;;;;;;;1043924;28;20106;-74
2022/12/30 00:44:10;;;;;;;29.77;14.23;;;;;;;;;;1044007;28;20036;-75
2022/12/30 00:44:40;;;;;;;25.73;13.18;;;;;;;;;;1044077;28;20386;-75
2022/12/30 00:45:11;;;;;;;31.58;15.35;;;;;;;;;;1042837;28;20020;-75
2022/12/30 00:45:42;;;;;;;23.65;12.57;;;;;;;;;;1044618;28;20021;-74
2022/12/30 00:46:13;;;;;;;21.58;12.15;;;;;;;;;;1044004;28;20027;-74
2022/12/30 00:46:44;;;;;;;23.20;12.05;;;;;;;;;;1043781;28;20397;-74
2022/12/30 00:47:15;;;;;;;22.48;10.82;;;;;;;;;;1043476;28;20036;-74
2022/12/30 00:47:45;;;;;;;30.98;12.48;;;;;;;;;;1043425;28;20020;-74
2022/12/30 00:56:25;;;;;;;17.55;10.52;;;;;;;;;;1043968;28;20017;-74
2022/12/30 00:56:55;;;;;;;19.33;12.05;;;;;;;;;;1044059;28;20017;-75
2022/12/30 00:57:26;;;;;;;21.58;12.00;;;;;;;;;;1043816;28;20033;-75
2022/12/30 00:57:56;;;;;;;21.90;11.48;;;;;;;;;;1043559;28;20032;-75
2022/12/30 00:58:27;;;;;;;21.10;10.18;;;;;;;;;;1043597;28;20025;-75
2022/12/30 00:58:58;;;;;;;22.77;11.90;;;;;;;;;;1041723;28;20025;-74
2022/12/30 00:59:28;;;;;;;19.45;10.82;;;;;;;;;;1041574;28;20557;-74
2022/12/30 00:59:59;;;;;;;24.73;11.63;;;;;;;;;;1043123;28;20493;-74
2022/12/30 01:00:30;;;;;;;20.40;12.02;;;;;;;;;;1041176;28;20025;-74
2022/12/30 01:01:00;;;;;;;21.40;11.77;;;;;;;;;;1043479;28;20040;-75
2022/12/30 01:01:31;;;;;;;15.60;9.77;;;;;;;;;;1043571;28;20455;-74
2022/12/30 01:02:02;;;;;;;22.58;11.88;;;;;;;;;;1043547;28;20025;-74
2022/12/30 01:02:32;;;;;;;19.83;10.00;;;;;;;;;;1043558;28;20032;-74
2022/12/30 01:03:03;;;;;;;21.23;11.43;;;;;;;;;;1043647;28;20021;-74
2022/12/30 01:03:33;;;;;;;23.38;10.82;;;;;;;;;;1041361;28;20032;-74
2022/12/30 01:04:04;;;;;;;23.38;11.65;;;;;;;;;;1041183;28;20024;-74
2022/12/30 01:04:35;;;;;;;22.00;12.18;;;;;;;;;;1043534;28;20020;-74
2022/12/30 01:05:06;;;;;;;21.42;10.27;;;;;;;;;;1043630;28;20044;-74
2022/12/30 01:05:39;;;;;;;23.00;12.35;;;;;;;;;;1043822;28;20033;-74
2022/12/30 01:06:10;;;;;;;21.88;11.50;;;;;;;;;;1043887;28;20397;-74
2022/12/30 01:06:41;;;;;;;23.38;10.18;;;;;;;;;;1043958;28;20013;-74
2022/12/30 01:07:11;;;;;;;23.05;11.48;;;;;;;;;;1043830;28;20047;-74
2022/12/30 01:07:42;;;;;;;33.33;10.02;;;;;;;;;;1043811;28;20029;-74
2022/12/30 01:08:12;;;;;;;25.02;11.40;;;;;;;;;;1043477;28;20032;-74
2022/12/30 01:08:43;;;;;;;24.45;9.75;;;;;;;;;;1043662;28;20020;-75
2022/12/30 01:09:14;;;;;;;18.95;9.65;;;;;;;;;;1043354;28;20062;-75
2022/12/30 01:09:44;;;;;;;22.30;11.88;;;;;;;;;;1043448;28;20090;-75
2022/12/30 01:10:15;;;;;;;20.48;10.10;;;;;;;;;;1043320;28;20572;-75
2022/12/30 01:10:45;;;;;;;17.25;10.15;;;;;;;;;;1043403;28;20037;-75
2022/12/30 01:11:16;;;;;;;18.65;11.02;;;;;;;;;;1039579;28;20479;-76
2022/12/30 01:12:07;;;;;;;23.23;10.13;;;;;;;;;;1043637;28;20115;-75
2022/12/30 01:12:38;;;;;;;16.67;9.05;;;;;;;;;;1042323;28;20020;-76
2022/12/30 01:13:08;;;;;;;18.08;10.20;;;;;;;;;;1043557;28;20024;-76
2022/12/30 01:13:39;;;;;;;14.95;10.02;;;;;;;;;;1043568;28;20020;-76
2022/12/30 01:14:10;;;;;;;13.10;8.50;;;;;;;;;;1043827;28;20497;-76
2022/12/30 01:14:40;;;;;;;25.38;10.65;;;;;;;;;;1042604;28;20016;-76
2022/12/30 01:15:11;;;;;;;15.18;8.38;;;;;;;;;;1042673;28;20776;-76
2022/12/30 01:15:42;;;;;;;15.05;8.73;;;;;;;;;;1043975;28;20048;-76
2022/12/30 01:16:14;;;;;;;20.35;9.60;;;;;;;;;;1043517;28;20021;-75
2022/12/30 01:16:44;;;;;;;21.35;9.57;;;;;;;;;;1043902;28;20021;-76
2022/12/30 01:17:19;;;;;;;20.95;11.88;;;;;;;;;;1044085;28;20532;-76
2022/12/30 01:17:49;;;;;;;15.93;7.88;;;;;;;;;;1043922;28;20021;-76
2022/12/30 01:18:20;;;;;;;16.50;7.18;;;;;;;;;;1043516;28;20477;-76
2022/12/30 01:18:51;;;;;;;19.45;10.00;;;;;;;;;;1042495;28;20422;-75
2022/12/30 01:19:21;;;;;;;18.30;10.18;;;;;;;;;;1043393;28;20072;-75
2022/12/30 01:19:52;;;;;;;15.45;8.60;;;;;;;;;;1043426;28;20488;-75
2022/12/30 01:20:22;;;;;;;16.80;8.55;;;;;;;;;;1042740;28;20029;-76
2022/12/30 01:20:58;;;;;;;18.60;9.07;;;;;;;;;;1042047;28;20442;-76
2022/12/30 01:21:28;;;;;;;15.30;8.07;;;;;;;;;;1042663;28;20017;-75
2022/12/30 01:21:59;;;;;;;15.55;9.07;;;;;;;;;;1041626;28;20550;-75
2022/12/30 01:22:29;;;;;;;15.30;8.90;;;;;;;;;;1041544;28;20467;-75
2022/12/30 01:23:00;;;;;;;14.18;8.38;;;;;;;;;;1041256;28;20025;-75
2022/12/30 01:23:31;;;;;;;19.67;9.73;;;;;;;;;;1039515;28;20108;-75
2022/12/30 01:24:01;;;;;;;12.05;7.55;;;;;;;;;;1043366;28;20027;-75
2022/12/30 01:24:32;;;;;;;13.45;7.20;;;;;;;;;;1043470;28;20036;-75
2022/12/30 01:25:02;;;;;;;16.75;9.68;;;;;;;;;;1042624;28;20115;-75
2022/12/30 01:25:33;;;;;;;18.10;9.10;;;;;;;;;;1044472;28;20166;-75
2022/12/30 01:26:04;;;;;;;14.30;8.18;;;;;;;;;;1043358;28;20491;-75
2022/12/30 01:26:35;;;;;;;14.10;7.63;;;;;;;;;;1043031;28;20021;-76
2022/12/30 01:27:06;;;;;;;18.35;9.07;;;;;;;;;;1043544;28;20017;-76
2022/12/30 01:27:36;;;;;;;20.50;10.80;;;;;;;;;;1040189;28;20028;-75
2022/12/30 01:28:07;;;;;;;15.40;7.80;;;;;;;;;;1040633;28;20544;-76
2022/12/30 01:28:38;;;;;;;12.43;8.23;;;;;;;;;;1039209;28;20021;-75
2022/12/30 01:29:08;;;;;;;15.63;8.75;;;;;;;;;;1038744;28;20127;-75
2022/12/30 01:29:40;;;;;;;12.63;7.32;;;;;;;;;;1043347;28;20499;-76
2022/12/30 01:30:11;;;;;;;13.00;8.10;;;;;;;;;;1039531;28;20135;-75
2022/12/30 01:30:41;;;;;;;16.88;9.45;;;;;;;;;;1043418;28;20411;-75
2022/12/30 01:31:12;;;;;;;16.27;8.63;;;;;;;;;;1043337;28;20163;-75
2022/12/30 01:31:42;;;;;;;18.90;9.65;;;;;;;;;;1043186;28;20025;-76
2022/12/30 01:32:15;;;;;;;15.27;7.70;;;;;;;;;;1042010;28;20554;-75
2022/12/30 01:32:45;;;;;;;14.68;8.05;;;;;;;;;;1040069;28;20028;-75
2022/12/30 01:33:16;;;;;;;16.27;10.23;;;;;;;;;;1042825;28;20492;-75
2022/12/30 01:33:46;;;;;;;17.02;8.73;;;;;;;;;;1038676;28;20010;-76
2022/12/30 01:34:17;;;;;;;13.98;8.77;;;;;;;;;;1039044;28;20026;-75
2022/12/30 01:34:47;;;;;;;15.68;8.73;;;;;;;;;;1038754;28;20022;-75
2022/12/30 01:35:18;;;;;;;14.50;8.00;;;;;;;;;;1038357;28;20018;-75
2022/12/30 01:35:48;;;;;;;14.05;8.15;;;;;;;;;;1043080;28;20056;-75
2022/12/30 01:36:19;;;;;;;12.15;7.45;;;;;;;;;;1043071;28;20128;-75
2022/12/30 01:36:50;;;;;;;15.38;9.00;;;;;;;;;;1043660;28;20361;-75
2022/12/30 01:37:21;;;;;;;17.35;9.10;;;;;;;;;;1042806;28;20017;-75
2022/12/30 01:37:51;;;;;;;13.93;6.60;;;;;;;;;;1042690;28;20031;-76
2022/12/30 01:38:22;;;;;;;12.55;7.72;;;;;;;;;;1043334;28;20025;-75
2022/12/30 01:38:52;;;;;;;15.63;8.50;;;;;;;;;;1043261;28;20029;-75
2022/12/30 01:39:23;;;;;;;19.58;6.43;;;;;;;;;;1043087;28;20070;-75
2022/12/30 01:39:53;;;;;;;13.27;7.80;;;;;;;;;;1042614;28;20025;-75
2022/12/30 01:40:24;;;;;;;12.13;7.15;;;;;;;;;;1042413;28;20083;-76
2022/12/30 01:40:55;;;;;;;16.95;8.90;;;;;;;;;;1043723;28;20017;-75
2022/12/30 01:41:25;;;;;;;15.15;7.13;;;;;;;;;;1043419;28;20025;-75
2022/12/30 01:41:56;;;;;;;14.18;8.65;;;;;;;;;;1043018;28;20487;-75
2022/12/30 01:42:28;;;;;;;15.15;8.90;;;;;;;;;;1043130;28;20469;-75
2022/12/30 01:42:59;;;;;;;16.65;8.15;;;;;;;;;;1043031;28;20119;-75
2022/12/30 01:43:41;;;;;;;12.90;7.78;;;;;;;;;;1043212;28;20021;-75
2022/12/30 01:44:30;;;;;;;15.98;7.30;;;;;;;;;;1043086;28;20033;-75
2022/12/30 01:45:16;;;;;;;14.57;8.70;;;;;;;;;;1043138;28;20021;-75
2022/12/30 01:45:48;;;;;;;14.40;7.35;;;;;;;;;;1042939;28;20028;-75
2022/12/30 01:46:24;;;;;;;15.73;9.27;;;;;;;;;;1043603;28;20385;-75
2022/12/30 01:46:55;;;;;;;12.10;7.45;;;;;;;;;;1043762;28;20032;-75
2022/12/30 01:47:34;;;;;;;10.40;6.18;;;;;;;;;;1043479;28;20035;-76
2022/12/30 01:48:10;;;;;;;12.57;7.18;;;;;;;;;;1042703;28;20111;-75
2022/12/30 01:48:41;;;;;;;11.68;6.55;;;;;;;;;;1043104;28;20021;-75
2022/12/30 01:49:12;;;;;;;15.25;7.38;;;;;;;;;;1043044;28;20021;-75
2022/12/30 01:49:44;;;;;;;14.30;7.43;;;;;;;;;;1043347;28;20024;-75
2022/12/30 01:50:17;;;;;;;11.60;6.90;;;;;;;;;;1043545;28;20063;-75
2022/12/30 01:50:53;;;;;;;13.68;8.60;;;;;;;;;;1043582;28;20111;-75
2022/12/30 01:51:28;;;;;;;13.35;5.90;;;;;;;;;;1043008;28;20025;-75
2022/12/30 01:51:58;;;;;;;13.68;8.27;;;;;;;;;;1042929;28;20028;-75
2022/12/30 01:52:29;;;;;;;11.82;7.10;;;;;;;;;;1042563;28;20021;-75
2022/12/30 01:53:06;;;;;;;11.25;5.25;;;;;;;;;;1042256;28;20095;-75
2022/12/30 01:53:41;;;;;;;12.68;7.10;;;;;;;;;;1042433;28;20541;-75
2022/12/30 01:54:12;;;;;;;13.63;6.55;;;;;;;;;;1041494;28;20035;-76
2022/12/30 01:54:43;;;;;;;14.63;7.05;;;;;;;;;;1043113;28;20057;-75
2022/12/30 01:55:17;;;;;;;14.75;8.60;;;;;;;;;;1042827;28;20090;-76
2022/12/30 01:55:53;;;;;;;14.82;7.22;;;;;;;;;;1043202;28;20029;-75
2022/12/30 01:56:24;;;;;;;12.43;6.88;;;;;;;;;;1042901;28;20033;-75
2022/12/30 01:56:54;;;;;;;13.95;8.07;;;;;;;;;;1043473;28;20025;-75
2022/12/30 01:57:25;;;;;;;12.02;6.97;;;;;;;;;;1043480;28;20025;-75
2022/12/30 01:57:56;;;;;;;14.02;8.57;;;;;;;;;;1043028;28;20023;-75
2022/12/30 01:58:30;;;;;;;11.45;6.88;;;;;;;;;;1043324;28;20021;-76
2022/12/30 01:59:07;;;;;;;13.45;7.53;;;;;;;;;;1041132;28;20028;-75
2022/12/30 01:59:38;;;;;;;14.45;8.60;;;;;;;;;;1041310;28;20415;-75
2022/12/30 02:00:10;;;;;;;13.40;8.23;;;;;;;;;;1042641;28;20052;-75
2022/12/30 02:00:40;;;;;;;14.77;8.18;;;;;;;;;;1044300;28;20103;-75
2022/12/30 02:01:11;;;;;;;18.15;8.30;;;;;;;;;;1043433;28;20025;-75
2022/12/30 02:01:42;;;;;;;14.20;7.35;;;;;;;;;;1043499;28;20120;-75
2022/12/30 02:02:13;;;;;;;12.45;7.88;;;;;;;;;;1043621;28;20029;-75
2022/12/30 02:02:43;;;;;;;15.65;7.80;;;;;;;;;;1043962;28;20029;-75
2022/12/30 02:03:14;;;;;;;12.25;6.88;;;;;;;;;;1043325;28;20078;-75
2022/12/30 02:03:48;;;;;;;12.38;8.13;;;;;;;;;;1043521;28;20017;-75
2022/12/30 02:04:20;;;;;;;17.05;9.25;;;;;;;;;;1043581;28;20132;-75
2022/12/30 02:04:51;;;;;;;13.23;7.72;;;;;;;;;;1043613;28;20017;-76
2022/12/30 02:05:23;;;;;;;14.70;8.50;;;;;;;;;;1041659;28;20029;-75
2022/12/30 02:05:54;;;;;;;15.60;8.10;;;;;;;;;;1043442;28;20025;-75
2022/12/30 02:06:27;;;;;;;18.15;9.23;;;;;;;;;;1042875;28;20025;-75
2022/12/30 02:07:09;;;;;;;20.65;8.50;;;;;;;;;;1043831;28;20029;-76
2022/12/30 02:07:43;;;;;;;15.07;7.18;;;;;;;;;;1044248;28;20468;-75
2022/12/30 02:08:16;;;;;;;12.55;7.53;;;;;;;;;;1043850;28;20029;-75
2022/12/30 02:08:46;;;;;;;19.67;9.60;;;;;;;;;;1043566;28;20072;-75
2022/12/30 02:09:17;;;;;;;14.98;8.50;;;;;;;;;;1044154;28;20485;-75
2022/12/30 02:09:50;;;;;;;18.90;8.02;;;;;;;;;;1043378;28;20036;-75
2022/12/30 02:10:21;;;;;;;13.52;7.03;;;;;;;;;;1043907;28;20427;-75
2022/12/30 02:10:53;;;;;;;22.33;8.90;;;;;;;;;;1044280;28;20029;-75
2022/12/30 02:11:23;;;;;;;13.73;7.82;;;;;;;;;;1044155;28;20028;-75
2022/12/30 02:11:55;;;;;;;16.73;9.25;;;;;;;;;;1044520;28;20091;-76
2022/12/30 02:12:25;;;;;;;18.25;7.80;;;;;;;;;;1043605;28;20064;-76
2022/12/30 02:12:56;;;;;;;14.57;7.72;;;;;;;;;;1044089;28;20025;-75
2022/12/30 02:13:27;;;;;;;10.93;6.68;;;;;;;;;;1043816;28;20064;-75
2022/12/30 02:13:57;;;;;;;13.70;8.48;;;;;;;;;;1039835;28;20025;-75
2022/12/30 02:14:29;;;;;;;12.95;7.05;;;;;;;;;;1042815;28;20033;-75
2022/12/30 02:14:59;;;;;;;22.02;8.30;;;;;;;;;;1043299;28;20025;-75
2022/12/30 02:15:38;;;;;;;14.23;7.95;;;;;;;;;;1040050;28;20025;-75
2022/12/30 02:16:28;;;;;;;13.70;7.78;;;;;;;;;;1043655;28;20135;-75
2022/12/30 02:17:15;;;;;;;13.55;7.13;;;;;;;;;;1042898;28;20552;-75
2022/12/30 02:17:56;;;;;;;14.30;8.38;;;;;;;;;;1043785;28;20027;-76
2022/12/30 02:18:41;;;;;;;15.50;7.38;;;;;;;;;;1043908;28;20109;-75
2022/12/30 02:19:12;;;;;;;17.70;8.02;;;;;;;;;;1043575;28;20025;-75
2022/12/30 02:19:45;;;;;;;15.25;7.82;;;;;;;;;;1041609;28;20116;-75
2022/12/30 02:20:30;;;;;;;15.30;8.30;;;;;;;;;;1042848;28;20025;-75
2022/12/30 02:21:15;;;;;;;15.05;8.52;;;;;;;;;;1041016;28;20025;-76
2022/12/30 02:21:49;;;;;;;15.05;8.40;;;;;;;;;;1043493;28;20035;-75
2022/12/30 02:22:31;;;;;;;16.90;7.85;;;;;;;;;;1041074;28;20068;-75
2022/12/30 02:23:17;;;;;;;14.25;8.02;;;;;;;;;;1040994;28;20052;-75
2022/12/30 02:23:57;;;;;;;14.07;8.38;;;;;;;;;;1043361;28;20021;-75
2022/12/30 02:24:27;;;;;;;;;;;;;;;;;;1043978;28;20135;-76
2022/12/30 02:25:17;;;;;;;17.60;8.02;;;;;;;;;;1043960;28;20027;-75
2022/12/30 02:26:06;;;;;;;14.45;8.10;;;;;;;;;;1043811;28;20024;-75
2022/12/30 02:26:49;;;;;;;18.17;9.95;;;;;;;;;;1043286;28;20048;-75
2022/12/30 02:27:22;;;;;;;12.43;8.35;;;;;;;;;;1042982;28;20073;-75
2022/12/30 02:27:56;;;;;;;13.00;7.72;;;;;;;;;;1042782;28;20056;-75
2022/12/30 02:28:26;;;;;;;14.13;7.22;;;;;;;;;;1042789;28;20054;-75
2022/12/30 02:29:15;;;;;;;17.58;8.25;;;;;;;;;;1044236;28;20029;-73
2022/12/30 02:29:54;;;;;;;13.27;8.20;;;;;;;;;;1043970;28;20079;-76
2022/12/30 02:30:43;;;;;;;14.55;8.07;;;;;;;;;;1043797;28;20025;-75
2022/12/30 02:31:20;;;;;;;22.10;7.80;;;;;;;;;;1043079;28;20017;-75
2022/12/30 02:31:50;;;;;;;18.30;9.32;;;;;;;;;;1043600;28;20029;-75
2022/12/30 02:32:25;;;;;;;15.40;8.35;;;;;;;;;;1041804;28;20586;-75
2022/12/30 02:33:02;;;;;;;15.35;8.18;;;;;;;;;;1043512;28;20025;-75
2022/12/30 02:33:41;;;;;;;16.20;9.68;;;;;;;;;;1043755;28;20025;-75
2022/12/30 02:34:15;;;;;;;15.40;8.35;;;;;;;;;;1042961;28;20071;-75
2022/12/30 02:35:04;;;;;;;19.05;11.30;;;;;;;;;;1043449;28;20061;-75
2022/12/30 02:36:01;;;;;;;16.17;8.03;;;;;;;;;;1042089;28;20484;-75
2022/12/30 02:36:50;;;;;;;16.90;8.65;;;;;;;;;;1039466;28;20264;-75
2022/12/30 02:37:26;;;;;;;16.92;8.13;;;;;;;;;;1041611;28;20102;-76
2022/12/30 02:37:56;;;;;;;18.15;8.73;;;;;;;;;;1040239;28;20024;-75
2022/12/30 02:38:49;;;;;;;14.13;7.57;;;;;;;;;;1042936;28;20020;-75
2022/12/30 02:39:38;;;;;;;15.32;8.48;;;;;;;;;;1042943;28;20400;-76
2022/12/30 02:40:22;;;;;;;15.75;7.35;;;;;;;;;;1042541;28;20469;-76
2022/12/30 02:44:41;;;;;;;14.10;6.68;;;;;;;;;;1043124;28;20392;-75
2022/12/30 02:45:15;;;;;;;11.70;7.18;;;;;;;;;;1042417;28;20020;-76
2022/12/30 02:45:49;;;;;;;12.68;6.95;;;;;;;;;;1043093;28;20017;-76
2022/12/30 02:46:21;;;;;;;15.02;8.82;;;;;;;;;;1038394;28;20130;-75
2022/12/30 02:47:00;;;;;;;13.30;7.05;;;;;;;;;;1038061;28;20044;-75
2022/12/30 02:47:30;;;;;;;14.70;7.45;;;;;;;;;;1038475;28;20022;-75
2022/12/30 02:48:03;;;;;;;14.68;7.40;;;;;;;;;;1041505;28;20025;-75
2022/12/30 02:48:36;;;;;;;15.13;8.60;;;;;;;;;;1042671;28;20033;-75
2022/12/30 02:49:09;;;;;;;15.15;8.18;;;;;;;;;;1043850;28;20017;-75
2022/12/30 02:49:42;;;;;;;15.00;7.00;;;;;;;;;;1043834;28;20313;-75
2022/12/30 02:52:44;;;;;;;12.35;7.25;;;;;;;;;;1044442;28;20041;-75
2022/12/30 02:53:17;;;;;;;10.88;7.07;;;;;;;;;;1042547;28;20507;-76
2022/12/30 02:53:47;;;;;;;19.52;8.25;;;;;;;;;;1042818;28;20166;-75
2022/12/30 02:54:20;;;;;;;19.27;9.35;;;;;;;;;;1041671;28;20178;-75
2022/12/30 02:54:51;;;;;;;14.32;8.50;;;;;;;;;;1039433;28;20035;-75
2022/12/30 02:55:21;;;;;;;20.98;9.15;;;;;;;;;;1041061;28;20036;-76
2022/12/30 02:55:52;;;;;;;15.65;9.90;;;;;;;;;;1037725;28;20527;-76
2022/12/30 02:56:23;;;;;;;12.85;7.25;;;;;;;;;;1040797;28;20021;-75
2022/12/30 02:56:54;;;;;;;14.43;8.25;;;;;;;;;;1045556;28;20029;-75
2022/12/30 02:57:29;;;;;;;16.45;7.72;;;;;;;;;;1038925;28;20037;-76
2022/12/30 02:57:59;;;;;;;14.50;7.40;;;;;;;;;;1040166;28;20075;-76
2022/12/30 02:58:32;;;;;;;16.38;7.93;;;;;;;;;;1039884;28;20129;-76
2022/12/30 03:04:19;;;;;;;15.05;8.63;;;;;;;;;;1043373;28;20029;-76
2022/12/30 03:04:50;;;;;;;12.68;8.88;;;;;;;;;;1040543;28;20512;-76
2022/12/30 03:05:35;;;;;;;17.23;8.57;;;;;;;;;;1043053;28;20029;-76
2022/12/30 03:06:06;;;;;;;19.15;9.85;;;;;;;;;;1042698;28;20111;-78
2022/12/30 03:06:50;;;;;;;16.48;8.43;;;;;;;;;;1044600;28;20009;-76
2022/12/30 03:07:24;;;;;;;14.10;8.23;;;;;;;;;;1042961;28;20083;-76
2022/12/30 03:08:00;;;;;;;16.30;8.18;;;;;;;;;;1039919;28;20017;-76
2022/12/30 03:08:35;;;;;;;18.45;8.30;;;;;;;;;;1041776;28;20030;-78
2022/12/30 03:09:12;;;;;;;15.35;7.97;;;;;;;;;;1043082;28;20021;-78
2022/12/30 03:09:42;;;;;;;18.20;8.15;;;;;;;;;;1042904;28;20549;-77
2022/12/30 03:11:13;;;;;;;15.43;7.60;;;;;;;;;;1043108;28;20021;-77
2022/12/30 03:12:03;;;;;;;16.77;7.78;;;;;;;;;;1043012;28;20070;-77
2022/12/30 03:12:39;;;;;;;15.38;8.68;;;;;;;;;;1043719;28;20103;-79
2022/12/30 03:13:24;;;;;;;16.67;9.27;;;;;;;;;;1043085;28;20028;-76
2022/12/30 03:14:09;;;;;;;18.88;9.75;;;;;;;;;;1042021;28;20119;-76
2022/12/30 03:14:40;;;;;;;21.92;8.70;;;;;;;;;;1043820;28;20162;-78
2022/12/30 03:15:14;;;;;;;18.38;9.75;;;;;;;;;;1041830;28;20037;-75
2022/12/30 03:15:48;;;;;;;26.15;9.80;;;;;;;;;;1042732;28;20431;-78
2022/12/30 03:16:19;;;;;;;18.98;9.32;;;;;;;;;;1041307;28;20467;-78
2022/12/30 03:16:55;;;;;;;23.88;13.27;;;;;;;;;;1043701;28;20021;-77
2022/12/30 03:17:28;;;;;;;25.23;12.32;;;;;;;;;;1037901;28;20025;-77
2022/12/30 03:17:59;;;;;;;25.05;13.07;;;;;;;;;;1039409;28;20120;-76
2022/12/30 03:18:30;;;;;;;26.08;11.73;;;;;;;;;;1038399;28;20017;-76
2022/12/30 03:19:03;;;;;;;22.90;10.98;;;;;;;;;;1035777;28;20112;-76
2022/12/30 03:19:42;;;;;;;35.83;14.27;;;;;;;;;;1038799;28;20103;-75
2022/12/30 03:20:17;;;;;;;19.73;11.35;;;;;;;;;;1040072;28;20375;-76
2022/12/30 03:20:48;;;;;;;24.05;12.45;;;;;;;;;;1043137;28;20032;-75
2022/12/30 03:21:20;;;;;;;24.98;12.38;;;;;;;;;;1043653;28;20048;-75
2022/12/30 03:21:52;;;;;;;22.48;12.05;;;;;;;;;;1041510;28;20029;-75
2022/12/30 03:27:22;;;;;;;28.13;11.57;;;;;;;;;;1042687;28;20064;-75
2022/12/30 03:27:55;;;;;;;24.90;12.35;;;;;;;;;;1043450;28;20025;-76
2022/12/30 03:28:27;;;;;;;26.20;12.63;;;;;;;;;;1043265;28;20500;-75
2022/12/30 03:28:58;;;;;;;24.85;11.98;;;;;;;;;;1043962;28;20508;-77
2022/12/30 03:29:35;;;;;;;24.23;12.77;;;;;;;;;;1043318;28;20016;-77
2022/12/30 03:30:06;;;;;;;30.92;15.10;;;;;;;;;;1039543;28;20033;-75
2022/12/30 03:30:40;;;;;;;27.88;14.75;;;;;;;;;;1038852;28;20034;-75
2022/12/30 03:31:13;;;;;;;25.48;13.63;;;;;;;;;;1041335;28;20026;-75
2022/12/30 03:31:44;;;;;;;24.60;14.05;;;;;;;;;;1040979;28;20024;-75
2022/12/30 03:32:16;;;;;;;26.77;13.50;;;;;;;;;;1039498;28;20497;-76
2022/12/30 03:32:46;;;;;;;28.52;15.68;;;;;;;;;;1039253;28;20112;-75
2022/12/30 03:33:18;;;;;;;31.05;13.38;;;;;;;;;;1041435;28;20037;-77
2022/12/30 03:33:49;;;;;;;34.53;14.88;;;;;;;;;;1041961;28;20108;-76
2022/12/30 03:34:20;;;;;;;42.22;15.88;;;;;;;;;;1040946;28;20029;-76
2022/12/30 03:34:50;;;;;;;40.10;18.95;;;;;;;;;;1041995;28;20025;-76
2022/12/30 03:35:22;;;;;;;28.73;15.02;;;;;;;;;;1042790;28;20102;-76
2022/12/30 03:35:55;;;;;;;31.38;16.25;;;;;;;;;;1043683;28;20116;-76
2022/12/30 03:36:37;;;;;;;37.58;16.05;;;;;;;;;;1043271;28;20025;-75
2022/12/30 03:37:11;;;;;;;41.05;19.50;;;;;;;;;;1041187;28;20032;-76
2022/12/30 03:37:46;;;;;;;33.75;14.73;;;;;;;;;;1042889;28;20079;-75
2022/12/30 03:38:18;;;;;;;40.95;17.65;;;;;;;;;;1040156;28;20032;-76
2022/12/30 03:38:55;;;;;;;41.63;17.40;;;;;;;;;;1035898;28;20025;-74
2022/12/30 03:39:35;;;;;;;40.42;16.40;;;;;;;;;;1037305;28;20029;-75
2022/12/30 03:40:14;;;;;;;32.45;15.85;;;;;;;;;;1039854;28;20157;-76
2022/12/30 03:40:46;;;;;;;42.08;18.25;;;;;;;;;;1042745;28;20035;-76
2022/12/30 03:41:17;;;;;;;39.03;17.73;;;;;;;;;;1043371;28;20028;-76
2022/12/30 03:41:49;;;;;;;36.83;17.75;;;;;;;;;;1042764;28;20020;-76
2022/12/30 03:42:20;;;;;;;31.05;16.48;;;;;;;;;;1042192;28;20493;-76
2022/12/30 03:42:52;;;;;;;42.65;17.92;;;;;;;;;;1038843;28;20556;-75
2022/12/30 03:43:24;;;;;;;37.17;17.38;;;;;;;;;;1035272;28;20085;-75
2022/12/30 03:43:55;;;;;;;40.63;20.02;;;;;;;;;;1039883;28;20056;-75
2022/12/30 03:44:26;;;;;;;30.25;15.75;;;;;;;;;;1036198;28;20595;-75
2022/12/30 03:44:57;;;;;;;44.03;19.00;;;;;;;;;;1036564;28;20040;-75
2022/12/30 03:45:27;;;;;;;44.53;18.23;;;;;;;;;;1038029;28;20028;-75
2022/12/30 03:45:58;;;;;;;40.33;19.08;;;;;;;;;;1038029;28;20515;-75
2022/12/30 03:46:31;;;;;;;45.22;19.13;;;;;;;;;;1041886;28;20025;-75
2022/12/30 03:47:01;;;;;;;47.42;20.10;;;;;;;;;;1042436;28;20111;-75
2022/12/30 03:47:32;;;;;;;40.38;18.90;;;;;;;;;;1043212;28;20021;-75
2022/12/30 03:48:02;;;;;;;40.15;20.25;;;;;;;;;;1043086;28;20074;-75
2022/12/30 03:48:33;;;;;;;45.75;20.77;;;;;;;;;;1041352;28;20624;-75
2022/12/30 03:49:04;;;;;;;47.75;21.25;;;;;;;;;;1040705;28;20028;-75
2022/12/30 03:49:34;;;;;;;38.47;19.60;;;;;;;;;;1040780;28;20533;-75
2022/12/30 03:50:05;;;;;;;47.13;19.42;;;;;;;;;;1040885;28;20155;-75
2022/12/30 03:50:36;;;;;;;43.95;20.50;;;;;;;;;;1042419;28;20078;-76
2022/12/30 03:51:06;;;;;;;39.88;20.50;;;;;;;;;;1043301;28;20079;-77
2022/12/30 03:51:37;;;;;;;37.83;18.55;;;;;;;;;;1042488;28;20279;-76
2022/12/30 03:52:12;;;;;;;47.20;20.70;;;;;;;;;;1043519;28;20029;-76
2022/12/30 03:52:42;;;;;;;47.20;20.83;;;;;;;;;;1043547;28;20045;-76
2022/12/30 03:53:13;;;;;;;48.80;21.27;;;;;;;;;;1042342;28;20021;-76
2022/12/30 03:53:43;;;;;;;40.28;19.38;;;;;;;;;;1042638;28;20069;-76
2022/12/30 03:54:14;;;;;;;41.05;19.83;;;;;;;;;;1042777;28;20056;-76
2022/12/30 03:54:44;;;;;;;39.60;20.17;;;;;;;;;;1043269;28;20119;-77
2022/12/30 03:55:15;;;;;;;41.88;19.95;;;;;;;;;;1041490;28;20025;-76
2022/12/30 03:55:46;;;;;;;40.47;19.70;;;;;;;;;;1042779;28;20074;-75
2022/12/30 03:56:17;;;;;;;43.33;19.77;;;;;;;;;;1041490;28;20029;-75
2022/12/30 03:56:47;;;;;;;42.45;19.30;;;;;;;;;;1041108;28;20028;-75
2022/12/30 03:57:18;;;;;;;40.63;19.95;;;;;;;;;;1043181;28;20459;-75
2022/12/30 03:57:49;;;;;;;39.28;18.45;;;;;;;;;;1038953;28;20535;-75
2022/12/30 03:58:19;;;;;;;41.65;20.55;;;;;;;;;;1037576;28;20021;-75
2022/12/30 03:58:50;;;;;;;46.70;19.08;;;;;;;;;;1043252;28;20029;-75
2022/12/30 03:59:21;;;;;;;42.22;20.77;;;;;;;;;;1039306;28;20448;-75
2022/12/30 03:59:51;;;;;;;44.53;20.05;;;;;;;;;;1038641;28;20021;-76
2022/12/30 04:00:22;;;;;;;43.90;22.38;;;;;;;;;;1035671;28;20010;-75
2022/12/30 04:00:53;;;;;;;46.88;18.63;;;;;;;;;;1033798;28;20026;-75
2022/12/30 04:01:23;;;;;;;48.60;21.70;;;;;;;;;;1035122;28;20022;-75
2022/12/30 04:01:54;;;;;;;47.28;22.80;;;;;;;;;;1034816;28;20108;-75
2022/12/30 04:02:25;;;;;;;40.70;19.85;;;;;;;;;;1034114;28;20065;-76